Time;durP1;ratioP1;P1;durP2;ratioP2;P2;SDS_P1;SDS_P2;PMS_P1;PMS_P2;Temp;Humidity;BMP_temperature;BMP_pressure;BME280_temperature;BME280_humidity;BME280_pressure;Samples;Min_cycle;Max_cycle;Signal;HPM_P1;HPM_P2
2024/01/13 00:02:14;;;;;;;12.60;3.85;;;2.60;99.90;;;;;;5114413;27;20046;-85
2024/01/13 00:04:40;;;;;;;11.98;4.32;;;2.60;99.90;;;;;;5114000;27;20490;-84
2024/01/13 00:07:06;;;;;;;12.82;4.55;;;2.60;99.90;;;;;;5106178;28;20119;-85
2024/01/13 00:09:31;;;;;;;13.07;4.20;;;2.70;99.90;;;;;;5104445;27;20463;-84
2024/01/13 00:11:57;;;;;;;10.32;4.00;;;2.60;99.90;;;;;;5113467;28;20043;-85
2024/01/13 00:14:22;;;;;;;11.27;5.13;;;2.60;99.90;;;;;;5113692;27;20034;-85
2024/01/13 00:16:49;;;;;;;10.30;4.80;;;2.60;99.90;;;;;;5114301;27;20096;-85
2024/01/13 00:19:14;;;;;;;13.77;4.45;;;2.70;99.90;;;;;;5113516;27;20042;-85
2024/01/13 00:21:40;;;;;;;13.23;4.57;;;2.70;99.90;;;;;;5114025;27;20039;-85
2024/01/13 00:24:06;;;;;;;9.98;4.43;;;2.70;99.90;;;;;;5114329;27;20536;-84
2024/01/13 00:26:31;;;;;;;9.68;4.72;;;2.70;99.90;;;;;;5132490;27;20283;-85
2024/01/13 00:28:57;;;;;;;7.40;4.13;;;2.70;99.90;;;;;;5132084;27;20058;-84
2024/01/13 00:31:23;;;;;;;8.38;3.90;;;2.70;99.90;;;;;;5132636;27;20027;-85
2024/01/13 00:33:48;;;;;;;10.80;4.05;;;2.80;99.90;;;;;;5132069;27;20031;-85
2024/01/13 00:36:14;;;;;;;10.23;3.88;;;2.70;99.90;;;;;;5096632;27;20034;-84
2024/01/13 00:38:39;;;;;;;7.10;3.70;;;2.80;99.90;;;;;;5113601;27;20302;-84
2024/01/13 00:41:05;;;;;;;10.23;3.80;;;2.70;99.90;;;;;;5132020;27;20079;-85
2024/01/13 00:43:31;;;;;;;10.10;3.95;;;2.80;99.90;;;;;;5113095;27;20051;-85
2024/01/13 00:45:57;;;;;;;10.55;3.67;;;2.80;99.90;;;;;;5113412;27;20035;-85
2024/01/13 00:48:22;;;;;;;6.07;3.40;;;2.70;99.90;;;;;;5113146;27;20038;-85
2024/01/13 00:50:48;;;;;;;10.02;3.70;;;2.70;99.90;;;;;;5113652;27;20123;-84
2024/01/13 00:53:14;;;;;;;6.07;2.97;;;2.70;99.90;;;;;;5107813;27;20039;-84
2024/01/13 00:55:39;;;;;;;7.68;3.65;;;2.60;99.90;;;;;;5131752;27;20047;-85
2024/01/13 00:58:05;;;;;;;11.07;4.18;;;2.60;99.90;;;;;;5113933;27;20035;-85
2024/01/13 01:00:30;;;;;;;9.25;3.53;;;2.60;99.90;;;;;;5111199;27;20039;-87
2024/01/13 01:02:56;;;;;;;11.77;4.10;;;2.50;99.90;;;;;;5113700;27;20031;-84
2024/01/13 01:05:22;;;;;;;12.77;4.22;;;2.50;99.90;;;;;;5112949;27;20027;-84
2024/01/13 01:07:47;;;;;;;13.70;4.13;;;2.50;99.90;;;;;;5113303;27;20035;-85
2024/01/13 01:10:13;;;;;;;11.52;4.25;;;2.50;99.90;;;;;;5131590;27;20509;-85
2024/01/13 01:12:39;;;;;;;9.40;3.95;;;2.50;99.90;;;;;;5113535;28;20038;-86
2024/01/13 01:15:05;;;;;;;10.13;3.85;;;2.50;99.90;;;;;;5104104;27;20419;-84
2024/01/13 01:17:30;;;;;;;10.88;4.10;;;2.50;99.90;;;;;;5113431;28;20101;-84
2024/01/13 01:19:56;;;;;;;7.10;3.80;;;2.50;99.90;;;;;;5132263;27;20074;-84
2024/01/13 01:22:22;;;;;;;10.68;4.10;;;2.60;99.90;;;;;;5113016;28;20027;-84
2024/01/13 01:24:48;;;;;;;10.80;4.20;;;2.60;99.90;;;;;;5104438;28;20031;-85
2024/01/13 01:27:13;;;;;;;10.45;4.43;;;2.50;99.90;;;;;;5135223;27;20113;-84
2024/01/13 01:29:39;;;;;;;14.25;5.10;;;2.50;99.90;;;;;;5138641;27;20115;-85
2024/01/13 01:32:05;;;;;;;9.27;4.22;;;2.50;99.90;;;;;;5119875;27;20043;-84
2024/01/13 01:34:30;;;;;;;8.27;4.22;;;2.50;99.90;;;;;;5119699;27;20071;-84
2024/01/13 01:36:56;;;;;;;10.23;3.95;;;2.50;99.90;;;;;;5137830;27;20405;-85
2024/01/13 01:39:22;;;;;;;8.20;4.18;;;2.40;99.90;;;;;;5138443;27;20118;-87
2024/01/13 01:41:47;;;;;;;9.65;3.95;;;2.40;99.90;;;;;;5138303;27;20039;-85
2024/01/13 01:44:13;;;;;;;6.35;3.95;;;2.50;99.90;;;;;;5120275;27;20031;-85
2024/01/13 01:46:39;;;;;;;9.45;4.05;;;2.50;99.90;;;;;;5138828;27;20030;-84
2024/01/13 01:49:06;;;;;;;8.90;4.47;;;2.50;99.90;;;;;;5138594;27;20501;-84
2024/01/13 01:51:32;;;;;;;9.02;4.13;;;2.50;99.90;;;;;;5108646;27;20563;-85
2024/01/13 01:53:59;;;;;;;7.95;3.83;;;2.50;99.90;;;;;;5130391;27;20114;-85
2024/01/13 01:56:28;;;;;;;7.10;3.70;;;2.50;99.90;;;;;;5119566;27;20035;-84
2024/01/13 01:58:55;;;;;;;9.65;5.03;;;2.60;99.90;;;;;;5119884;27;20414;-84
2024/01/13 02:01:22;;;;;;;11.48;4.40;;;2.60;99.90;;;;;;5137902;27;20039;-85
2024/01/13 02:03:48;;;;;;;8.35;3.90;;;2.60;99.90;;;;;;5137953;27;20509;-85
2024/01/13 02:06:14;;;;;;;8.98;3.88;;;2.60;99.90;;;;;;5138018;27;20050;-85
2024/01/13 02:08:41;;;;;;;7.88;3.28;;;2.60;99.90;;;;;;5138257;27;20043;-85
2024/01/13 02:11:10;;;;;;;9.32;4.20;;;2.60;99.90;;;;;;5087732;28;20043;-85
2024/01/13 02:13:36;;;;;;;6.88;3.70;;;2.60;99.90;;;;;;5119369;27;20050;-85
2024/01/13 02:16:02;;;;;;;8.02;3.75;;;2.60;99.90;;;;;;5137739;27;20027;-85
2024/01/13 02:18:29;;;;;;;9.15;3.42;;;2.60;99.90;;;;;;5112479;27;20084;-85
2024/01/13 02:20:54;;;;;;;10.98;4.28;;;2.70;99.90;;;;;;5120982;27;20114;-85
2024/01/13 02:23:20;;;;;;;9.70;3.00;;;2.70;99.90;;;;;;5119398;27;20121;-85
2024/01/13 02:25:45;;;;;;;6.68;3.03;;;2.70;99.90;;;;;;5118946;27;20130;-85
2024/01/13 02:28:11;;;;;;;7.25;2.90;;;2.70;99.90;;;;;;5102624;27;20039;-85
2024/01/13 02:30:37;;;;;;;5.88;2.72;;;2.70;99.90;;;;;;5086250;28;20495;-85
2024/01/13 02:33:02;;;;;;;8.07;3.03;;;2.70;99.90;;;;;;5114350;27;20122;-85
2024/01/13 02:35:28;;;;;;;8.70;3.50;;;2.70;99.90;;;;;;5099738;27;20352;-85
2024/01/13 02:37:53;;;;;;;10.02;3.00;;;2.70;99.90;;;;;;5116193;27;20179;-85
2024/01/13 02:40:19;;;;;;;9.77;3.63;;;2.70;99.90;;;;;;5116346;27;20466;-85
2024/01/13 02:42:45;;;;;;;10.77;3.40;;;2.70;99.90;;;;;;5112155;27;20058;-85
2024/01/13 02:45:10;;;;;;;8.02;3.00;;;2.60;99.90;;;;;;5098961;27;20080;-87
2024/01/13 02:47:45;;;;;;;8.43;2.90;;;2.60;99.90;;;;;;5116244;27;20431;-85
2024/01/13 02:50:14;;;;;;;11.20;3.10;;;2.60;99.90;;;;;;5115692;27;20047;-87
2024/01/13 02:52:40;;;;;;;11.40;3.38;;;2.70;99.90;;;;;;5107999;27;20061;-85
2024/01/13 02:55:06;;;;;;;8.77;3.20;;;2.60;99.90;;;;;;5118533;27;20380;-85
2024/01/13 02:57:32;;;;;;;13.88;3.90;;;2.60;99.90;;;;;;5112395;27;20031;-85
2024/01/13 02:59:58;;;;;;;8.50;3.20;;;2.60;99.90;;;;;;5127388;27;20038;-85
2024/01/13 03:02:23;;;;;;;9.00;3.10;;;2.70;99.90;;;;;;5133879;27;20032;-85
2024/01/13 03:04:49;;;;;;;8.82;2.70;;;2.60;99.90;;;;;;5135539;27;20039;-86
2024/01/13 03:07:14;;;;;;;6.60;2.65;;;2.70;99.90;;;;;;5098491;27;20027;-85
2024/01/13 03:09:40;;;;;;;5.90;2.50;;;2.60;99.90;;;;;;5098335;27;20490;-85
2024/01/13 03:12:06;;;;;;;7.00;2.50;;;2.60;99.90;;;;;;5133870;27;20035;-85
2024/01/13 03:14:32;;;;;;;6.20;2.50;;;2.70;99.90;;;;;;5132403;27;20039;-86
2024/01/13 03:16:57;;;;;;;9.25;2.90;;;2.70;99.90;;;;;;5115566;27;20114;-86
2024/01/13 03:19:24;;;;;;;6.80;2.60;;;2.60;99.90;;;;;;5114635;27;20130;-86
2024/01/13 03:21:49;;;;;;;8.55;2.55;;;2.60;99.90;;;;;;5081153;28;20063;-86
2024/01/13 03:24:15;;;;;;;5.00;2.25;;;2.60;99.90;;;;;;5100540;28;20094;-87
2024/01/13 03:26:41;;;;;;;7.32;2.50;;;2.70;99.90;;;;;;5081870;27;20085;-85
2024/01/13 03:29:06;;;;;;;10.27;2.60;;;2.60;99.90;;;;;;5115407;27;20404;-86
2024/01/13 03:31:32;;;;;;;5.15;2.03;;;2.70;99.90;;;;;;5114941;27;20039;-86
2024/01/13 03:33:57;;;;;;;7.63;2.75;;;2.70;99.90;;;;;;5115261;27;20035;-86
2024/01/13 03:36:23;;;;;;;6.38;2.00;;;2.70;99.90;;;;;;5098014;27;20398;-86
2024/01/13 03:38:49;;;;;;;3.60;2.00;;;2.70;99.90;;;;;;5114816;27;20114;-86
2024/01/13 03:41:17;;;;;;;6.53;2.42;;;2.70;99.90;;;;;;5114436;27;20027;-86
2024/01/13 03:43:43;;;;;;;7.82;3.30;;;2.70;99.90;;;;;;5114632;27;20042;-86
2024/01/13 03:46:10;;;;;;;5.43;2.55;;;2.70;99.90;;;;;;5104507;27;20027;-85
2024/01/13 03:48:35;;;;;;;8.77;2.90;;;2.70;99.90;;;;;;5132958;27;20033;-86
2024/01/13 03:51:01;;;;;;;6.45;2.80;;;2.70;99.90;;;;;;5114681;27;20482;-86
2024/01/13 03:53:28;;;;;;;9.27;2.65;;;2.70;99.90;;;;;;5132835;27;20395;-85
2024/01/13 03:55:54;;;;;;;7.53;2.97;;;2.70;99.90;;;;;;5097536;27;20038;-86
2024/01/13 03:58:20;;;;;;;6.97;3.10;;;2.80;99.90;;;;;;5114572;27;20135;-87
2024/01/13 04:00:46;;;;;;;7.28;3.05;;;2.80;99.90;;;;;;5114291;27;20035;-86
2024/01/13 04:03:12;;;;;;;11.48;2.78;;;2.80;99.90;;;;;;5114662;27;20035;-86
2024/01/13 04:05:37;;;;;;;9.10;3.05;;;2.80;99.90;;;;;;5111265;28;20289;-86
2024/01/13 04:08:03;;;;;;;7.22;2.95;;;2.80;99.90;;;;;;5091214;27;20027;-86
2024/01/13 04:10:29;;;;;;;6.30;2.65;;;2.80;99.90;;;;;;5110148;27;20039;-86
2024/01/13 04:12:56;;;;;;;8.77;3.03;;;2.70;99.90;;;;;;5132908;27;20402;-86
2024/01/13 04:15:22;;;;;;;9.40;3.58;;;2.80;99.90;;;;;;5106597;28;20039;-86
2024/01/13 04:17:48;;;;;;;6.70;2.97;;;2.80;99.90;;;;;;5119460;27;20463;-88
2024/01/13 04:20:14;;;;;;;7.65;3.20;;;4.00;99.90;;;;;;5089932;27;20040;-85
2024/01/13 04:22:39;;;;;;;6.57;3.17;;;2.70;99.90;;;;;;5132717;27;20039;-86
2024/01/13 04:25:05;;;;;;;9.98;3.22;;;2.70;99.90;;;;;;5114082;27;20034;-86
2024/01/13 04:27:31;;;;;;;7.72;3.22;;;2.80;99.90;;;;;;5113425;27;20455;-86
2024/01/13 04:29:57;;;;;;;7.90;3.47;;;2.80;99.90;;;;;;5097280;27;20035;-86
2024/01/13 04:32:22;;;;;;;11.52;3.42;;;2.80;99.90;;;;;;5113928;27;20348;-87
2024/01/13 04:34:48;;;;;;;11.18;3.25;;;2.70;99.90;;;;;;5097177;27;20096;-86
2024/01/13 04:37:14;;;;;;;9.43;3.17;;;2.80;99.90;;;;;;5111557;27;20409;-86
2024/01/13 04:39:39;;;;;;;10.77;3.15;;;2.70;99.90;;;;;;5114420;27;20039;-86
2024/01/13 04:42:05;;;;;;;8.80;3.47;;;2.80;99.90;;;;;;5127221;27;20035;-86
2024/01/13 04:44:31;;;;;;;8.68;4.10;;;2.80;99.90;;;;;;5116822;27;20115;-87
2024/01/13 04:46:57;;;;;;;7.75;2.85;;;2.90;99.90;;;;;;5111857;27;20326;-86
2024/01/13 04:49:24;;;;;;;9.80;3.10;;;2.80;99.90;;;;;;5112085;27;20119;-86
2024/01/13 04:51:50;;;;;;;10.02;3.20;;;2.80;99.90;;;;;;5105950;28;20067;-87
2024/01/13 04:54:15;;;;;;;8.93;3.08;;;2.80;99.90;;;;;;5104889;28;20517;-86
2024/01/13 04:56:41;;;;;;;7.95;2.70;;;2.80;99.90;;;;;;5093769;27;20122;-87
2024/01/13 04:59:07;;;;;;;5.90;3.17;;;2.80;99.90;;;;;;5101211;28;20059;-86
2024/01/13 05:01:33;;;;;;;7.93;3.20;;;2.80;99.90;;;;;;5090972;28;20067;-87
2024/01/13 05:03:58;;;;;;;10.77;2.85;;;2.90;99.90;;;;;;5122820;27;20070;-86
2024/01/13 05:06:24;;;;;;;9.93;3.05;;;2.90;99.90;;;;;;5087785;27;20042;-86
2024/01/13 05:08:50;;;;;;;8.15;3.28;;;2.90;99.90;;;;;;5089399;27;20048;-86
2024/01/13 05:11:17;;;;;;;9.00;2.80;;;2.90;99.90;;;;;;5093846;27;20095;-87
2024/01/13 05:13:43;;;;;;;6.18;2.35;;;2.90;99.90;;;;;;5086369;27;20039;-87
2024/01/13 05:16:09;;;;;;;7.85;2.55;;;2.80;99.90;;;;;;5084550;28;20040;-86
2024/01/13 05:18:34;;;;;;;12.30;2.50;;;2.80;99.90;;;;;;5113412;27;20095;-86
2024/01/13 05:21:00;;;;;;;6.68;2.78;;;2.70;99.90;;;;;;5132770;27;20401;-86
2024/01/13 05:23:25;;;;;;;9.85;3.05;;;2.70;99.90;;;;;;5097248;28;20486;-86
2024/01/13 05:25:51;;;;;;;6.68;2.60;;;2.70;99.90;;;;;;5097441;28;20036;-86
2024/01/13 05:28:17;;;;;;;8.60;2.70;;;3.50;99.90;;;;;;5090449;28;20473;-86
2024/01/13 05:30:43;;;;;;;8.10;2.47;;;2.70;99.90;;;;;;5112791;28;20042;-87
2024/01/13 05:33:08;;;;;;;6.88;2.40;;;2.70;99.90;;;;;;5094223;28;20035;-86
2024/01/13 05:35:34;;;;;;;8.05;2.30;;;2.80;99.90;;;;;;5130979;28;20502;-87
2024/01/13 05:37:59;;;;;;;8.38;2.58;;;2.70;99.90;;;;;;5109745;28;20059;-87
2024/01/13 05:40:25;;;;;;;7.05;2.53;;;2.80;99.90;;;;;;5113727;28;20547;-87
2024/01/13 05:42:51;;;;;;;7.30;3.13;;;2.80;99.90;;;;;;5089391;28;20131;-86
2024/01/13 05:45:17;;;;;;;6.55;2.70;;;2.70;99.90;;;;;;5105362;28;20115;-87
2024/01/13 05:47:42;;;;;;;8.52;2.80;;;2.80;99.90;;;;;;5093222;28;20491;-87
2024/01/13 05:50:09;;;;;;;7.18;2.70;;;2.70;99.90;;;;;;5105870;28;20134;-87
2024/01/13 05:52:36;;;;;;;6.25;2.75;;;2.80;99.90;;;;;;5128880;28;20047;-87
2024/01/13 05:55:03;;;;;;;8.98;2.63;;;2.70;99.90;;;;;;5125152;27;20050;-87
2024/01/13 05:57:29;;;;;;;4.78;2.35;;;2.80;99.90;;;;;;5112652;28;20148;-87
2024/01/13 05:59:54;;;;;;;4.65;2.28;;;2.70;99.90;;;;;;5123867;28;20092;-87
2024/01/13 06:02:20;;;;;;;4.85;2.25;;;2.70;99.90;;;;;;5092591;28;20513;-88
2024/01/13 06:04:47;;;;;;;4.45;2.35;;;2.80;99.90;;;;;;5103920;28;20035;-87
2024/01/13 06:07:14;;;;;;;6.65;2.05;;;3.60;99.90;;;;;;5113871;28;20023;-87
2024/01/13 06:09:39;;;;;;;4.30;1.83;;;2.80;99.90;;;;;;5105629;28;20043;-88
2024/01/13 06:12:07;;;;;;;6.05;2.08;;;2.70;99.90;;;;;;5116788;27;20066;-87
2024/01/13 06:14:32;;;;;;;7.70;2.92;;;2.80;99.90;;;;;;5135373;27;20100;-88
2024/01/13 06:16:58;;;;;;;3.30;1.75;;;2.80;99.90;;;;;;5117557;27;20031;-88
2024/01/13 06:19:24;;;;;;;6.38;1.90;;;2.80;99.90;;;;;;5100169;27;20046;-87
2024/01/13 06:21:49;;;;;;;4.40;1.60;;;2.80;99.90;;;;;;5117737;27;20043;-87
2024/01/13 06:24:15;;;;;;;3.55;1.73;;;2.70;99.90;;;;;;5128021;27;20035;-87
2024/01/13 06:26:41;;;;;;;2.60;1.48;;;3.90;99.90;;;;;;5115811;27;20394;-87
2024/01/13 06:29:07;;;;;;;5.10;1.98;;;3.60;99.90;;;;;;5093387;28;20050;-88
2024/01/13 06:31:33;;;;;;;4.85;2.40;;;3.70;99.90;;;;;;5115020;27;20553;-87
2024/01/13 06:33:59;;;;;;;4.97;1.60;;;3.90;99.90;;;;;;5094240;28;20070;-87
2024/01/13 06:36:25;;;;;;;5.53;1.50;;;4.00;99.90;;;;;;5112830;27;20114;-87
2024/01/13 06:38:50;;;;;;;2.58;1.33;;;3.60;99.90;;;;;;5099436;27;20442;-88
2024/01/13 06:41:16;;;;;;;2.33;1.10;;;2.80;99.90;;;;;;5113833;27;20084;-86
2024/01/13 06:43:42;;;;;;;2.30;1.20;;;2.80;99.90;;;;;;5134774;27;20092;-88
2024/01/13 06:46:08;;;;;;;3.78;1.20;;;2.80;99.90;;;;;;5117114;27;20099;-87
2024/01/13 06:48:34;;;;;;;3.10;1.33;;;2.80;99.90;;;;;;5097003;27;20027;-87
2024/01/13 06:50:59;;;;;;;4.10;1.67;;;2.90;99.90;;;;;;5115121;27;20099;-87
2024/01/13 06:53:25;;;;;;;3.85;1.27;;;2.90;99.90;;;;;;5135265;27;20035;-89
2024/01/13 06:55:51;;;;;;;3.67;1.38;;;2.90;99.90;;;;;;5109766;28;20028;-87
2024/01/13 06:58:17;;;;;;;4.25;1.58;;;2.90;99.90;;;;;;5110017;27;20031;-87
2024/01/13 07:00:43;;;;;;;4.38;1.63;;;3.40;99.90;;;;;;5115941;27;20132;-88
2024/01/13 07:03:08;;;;;;;3.63;1.80;;;2.80;99.90;;;;;;5111257;27;20035;-88
2024/01/13 07:05:34;;;;;;;4.20;1.90;;;3.70;99.90;;;;;;5111806;27;20035;-88
2024/01/13 07:08:00;;;;;;;8.23;1.75;;;3.60;99.90;;;;;;5112588;27;20031;-88
2024/01/13 07:10:29;;;;;;;4.93;1.63;;;3.90;99.90;;;;;;5107510;27;20043;-88
2024/01/13 07:12:59;;;;;;;6.18;2.20;;;2.90;99.90;;;;;;5104658;27;20043;-88
2024/01/13 07:15:25;;;;;;;5.50;2.15;;;2.90;99.90;;;;;;5096013;27;20104;-88
2024/01/13 07:17:52;;;;;;;3.63;1.75;;;4.00;99.90;;;;;;5109672;27;20081;-88
2024/01/13 07:20:17;;;;;;;4.40;1.77;;;3.70;99.90;;;;;;5094229;27;20066;-87
2024/01/13 07:22:43;;;;;;;6.00;2.30;;;3.30;99.90;;;;;;5105759;28;20372;-87
2024/01/13 07:25:09;;;;;;;5.25;1.80;;;3.80;99.90;;;;;;5115864;27;20099;-88
2024/01/13 07:27:34;;;;;;;5.15;2.17;;;4.00;99.90;;;;;;5092539;27;20114;-88
2024/01/13 07:30:01;;;;;;;5.97;2.20;;;4.30;99.90;;;;;;5102898;27;20039;-87
2024/01/13 07:32:27;;;;;;;7.32;2.80;;;3.70;99.90;;;;;;5118920;27;20074;-88
2024/01/13 07:34:53;;;;;;;5.35;2.72;;;4.00;99.90;;;;;;5089721;27;20039;-89
2024/01/13 07:37:19;;;;;;;8.70;3.10;;;4.10;99.90;;;;;;5114943;27;20038;-89
2024/01/13 07:39:47;;;;;;;11.15;3.50;;;4.20;99.90;;;;;;5116243;27;20126;-88
2024/01/13 07:42:18;;;;;;;8.65;3.55;;;3.50;99.90;;;;;;5090967;28;20035;-88
2024/01/13 07:44:44;;;;;;;9.23;3.65;;;4.00;99.90;;;;;;5116107;27;20053;-89
2024/01/13 07:47:31;;;;;;;10.25;3.92;;;4.20;99.90;;;;;;5098028;27;20034;-89
2024/01/13 07:49:59;;;;;;;9.80;4.05;;;3.50;99.90;;;;;;5089930;27;20070;-88
2024/01/13 07:52:25;;;;;;;11.00;4.13;;;4.10;99.90;;;;;;5099384;27;20134;-88
2024/01/13 07:54:51;;;;;;;9.30;4.47;;;3.80;99.90;;;;;;5098916;27;20147;-88
2024/01/13 07:57:19;;;;;;;12.63;5.00;;;4.20;99.90;;;;;;5098502;27;20041;-89
2024/01/13 07:59:47;;;;;;;14.98;6.20;;;3.70;99.90;;;;;;5116218;27;20107;-88
2024/01/13 08:02:39;;;;;;;16.67;6.30;;;2.90;99.90;;;;;;5112102;28;20042;-89
2024/01/13 08:05:18;;;;;;;16.52;6.82;;;3.00;99.90;;;;;;5107527;27;20043;-88
2024/01/13 08:07:58;;;;;;;22.95;7.50;;;2.20;99.90;;;;;;5099057;27;20039;-89
2024/01/13 08:10:41;;;;;;;21.33;8.23;;;4.30;99.90;;;;;;5099916;27;20061;-88
2024/01/13 08:13:10;;;;;;;18.52;7.65;;;2.90;99.90;;;;;;5086589;27;20055;-88
2024/01/13 08:15:39;;;;;;;25.13;9.75;;;4.30;99.90;;;;;;5115627;27;20112;-89
2024/01/13 08:18:18;;;;;;;28.63;10.63;;;4.10;99.90;;;;;;5113801;27;20035;-89
2024/01/13 08:20:44;;;;;;;29.88;12.27;;;3.80;99.90;;;;;;5093440;27;20050;-89
2024/01/13 08:23:09;;;;;;;28.92;11.80;;;4.40;99.90;;;;;;5085280;27;20678;-89
2024/01/13 08:25:35;;;;;;;33.13;12.75;;;4.40;99.90;;;;;;5087708;27;20031;-89
2024/01/13 08:28:00;;;;;;;31.63;12.98;;;4.40;99.90;;;;;;5089655;27;20035;-88
2024/01/13 08:30:26;;;;;;;39.08;15.50;;;4.20;99.90;;;;;;5089362;27;20071;-89
2024/01/13 08:32:52;;;;;;;38.10;15.80;;;4.30;99.90;;;;;;5111042;28;20410;-88
2024/01/13 08:35:17;;;;;;;35.47;15.32;;;4.30;99.90;;;;;;5101588;27;20044;-89
2024/01/13 08:37:43;;;;;;;41.92;14.95;;;4.30;99.90;;;;;;5085686;28;20042;-88
2024/01/13 08:40:09;;;;;;;44.20;17.27;;;3.00;99.90;;;;;;5089618;27;20088;-91
2024/01/13 08:42:37;;;;;;;41.25;17.77;;;3.00;99.90;;;;;;5092126;27;20046;-90
2024/01/13 08:45:04;;;;;;;48.63;19.30;;;4.10;99.90;;;;;;5109853;27;20414;-89
2024/01/13 08:47:32;;;;;;;47.95;19.75;;;2.90;99.90;;;;;;5087042;27;20035;-89
2024/01/13 08:49:58;;;;;;;55.45;20.85;;;4.30;99.90;;;;;;5095254;27;20042;-88
2024/01/13 08:52:24;;;;;;;53.78;21.23;;;4.20;99.90;;;;;;5092195;27;20035;-88
2024/01/13 08:54:49;;;;;;;49.22;21.60;;;4.30;99.90;;;;;;5110385;27;20035;-89
2024/01/13 08:57:15;;;;;;;56.28;23.33;;;3.80;99.90;;;;;;5106930;27;20047;-88
2024/01/13 08:59:41;;;;;;;60.22;24.33;;;3.00;99.90;;;;;;5110290;27;20038;-88
2024/01/13 09:02:06;;;;;;;60.08;25.48;;;3.80;99.90;;;;;;5087317;28;20046;-88
2024/01/13 09:04:32;;;;;;;63.03;25.80;;;3.00;99.90;;;;;;5106225;27;20031;-88
2024/01/13 09:06:58;;;;;;;65.70;26.70;;;4.10;99.90;;;;;;5093435;27;20031;-89
2024/01/13 09:09:23;;;;;;;66.85;26.83;;;3.10;99.90;;;;;;5093805;27;20507;-89
2024/01/13 09:11:49;;;;;;;66.07;29.10;;;3.10;99.90;;;;;;5110460;27;20067;-88
2024/01/13 09:14:16;;;;;;;65.75;28.48;;;3.70;99.90;;;;;;5110502;28;20060;-89
2024/01/13 09:16:43;;;;;;;61.83;26.50;;;3.10;99.90;;;;;;5114702;28;20070;-88
2024/01/13 09:19:09;;;;;;;73.28;30.33;;;3.20;99.90;;;;;;5097477;28;20494;-88
2024/01/13 09:21:34;;;;;;;60.75;28.73;;;3.10;99.90;;;;;;5123087;27;20047;-87
2024/01/13 09:24:00;;;;;;;70.38;29.65;;;3.20;99.90;;;;;;5114031;27;20031;-88
2024/01/13 09:26:26;;;;;;;73.53;31.27;;;4.20;99.90;;;;;;5113706;28;20031;-88
2024/01/13 09:28:53;;;;;;;70.72;32.00;;;3.20;99.90;;;;;;5112217;28;20030;-89
2024/01/13 09:31:19;;;;;;;71.85;31.27;;;3.20;99.90;;;;;;5113520;28;20035;-88
2024/01/13 09:33:45;;;;;;;76.47;33.47;;;3.20;99.90;;;;;;5113732;27;20082;-87
2024/01/13 09:36:10;;;;;;;70.47;33.40;;;3.20;99.90;;;;;;5105858;28;20062;-87
2024/01/13 09:38:36;;;;;;;67.90;30.77;;;3.20;99.90;;;;;;5100299;28;20103;-86
2024/01/13 09:41:02;;;;;;;66.15;31.65;;;3.90;99.90;;;;;;5111962;28;20057;-87
2024/01/13 09:44:03;;;;;;;63.92;30.65;;;3.20;99.90;;;;;;5085811;28;20043;-87
2024/01/13 09:46:29;;;;;;;72.32;32.50;;;3.20;99.90;;;;;;5099696;27;20059;-87
2024/01/13 09:48:57;;;;;;;65.47;32.08;;;3.30;99.90;;;;;;5100099;27;20053;-87
2024/01/13 09:51:23;;;;;;;68.32;33.00;;;3.20;99.90;;;;;;5135557;27;20035;-87
2024/01/13 09:53:55;;;;;;;67.18;34.60;;;3.20;99.90;;;;;;5117172;27;20494;-87
2024/01/13 09:56:32;;;;;;;65.72;31.75;;;4.20;99.90;;;;;;5089303;27;20046;-87
2024/01/13 09:58:58;;;;;;;66.45;32.10;;;4.00;99.90;;;;;;5117196;27;20042;-88
2024/01/13 10:01:25;;;;;;;69.15;32.08;;;3.30;99.90;;;;;;5100562;27;20035;-87
2024/01/13 10:03:51;;;;;;;62.78;32.22;;;3.30;99.90;;;;;;5117162;27;20039;-86
2024/01/13 10:06:18;;;;;;;71.88;33.03;;;3.30;99.90;;;;;;5100210;27;20035;-86
2024/01/13 10:08:44;;;;;;;63.20;30.98;;;3.30;99.90;;;;;;5099885;27;20042;-88
2024/01/13 10:11:09;;;;;;;59.63;30.80;;;3.30;99.90;;;;;;5099634;27;20043;-87
2024/01/13 10:13:36;;;;;;;60.38;29.38;;;3.30;99.90;;;;;;5116402;27;20038;-87
2024/01/13 10:16:02;;;;;;;63.80;30.75;;;3.90;99.90;;;;;;5114207;27;20494;-87
2024/01/13 10:18:31;;;;;;;62.67;29.25;;;3.40;99.90;;;;;;5125539;27;20042;-88
2024/01/13 10:20:57;;;;;;;62.30;29.98;;;3.40;99.90;;;;;;5128500;27;20042;-88
2024/01/13 10:23:24;;;;;;;57.85;27.95;;;4.00;99.90;;;;;;5101816;28;20040;-87
2024/01/13 10:25:50;;;;;;;59.08;28.65;;;3.40;99.90;;;;;;5129351;27;20508;-88
2024/01/13 10:28:15;;;;;;;55.72;27.77;;;3.40;99.90;;;;;;5135173;27;20110;-88
2024/01/13 10:30:41;;;;;;;58.28;26.58;;;3.50;99.90;;;;;;5116762;27;20042;-87
2024/01/13 10:33:10;;;;;;;52.38;27.05;;;3.50;99.90;;;;;;5114550;27;20035;-87
2024/01/13 10:35:36;;;;;;;53.95;27.13;;;4.80;99.90;;;;;;5111779;27;20093;-88
2024/01/13 10:38:02;;;;;;;52.22;24.35;;;4.30;99.90;;;;;;5116246;27;20070;-87
2024/01/13 10:40:28;;;;;;;54.30;25.42;;;3.50;99.90;;;;;;5115381;27;20110;-87
2024/01/13 10:42:57;;;;;;;49.42;24.10;;;3.50;99.90;;;;;;5098911;27;20062;-88
2024/01/13 10:45:24;;;;;;;49.83;22.25;;;3.60;99.90;;;;;;5107796;27;20480;-88
2024/01/13 10:48:07;;;;;;;48.08;21.50;;;2.70;99.90;;;;;;5097988;27;20031;-88
2024/01/13 10:50:46;;;;;;;45.35;22.73;;;4.70;99.90;;;;;;5115835;27;20062;-88
2024/01/13 10:53:21;;;;;;;51.85;22.95;;;5.00;99.90;;;;;;5104109;27;20031;-88
2024/01/13 10:55:50;;;;;;;51.70;22.92;;;4.50;99.90;;;;;;5123423;27;20462;-88
2024/01/13 10:58:18;;;;;;;48.70;23.65;;;5.10;99.90;;;;;;5127112;27;20097;-87
2024/01/13 11:00:44;;;;;;;53.67;23.67;;;3.70;99.90;;;;;;5111055;27;20031;-88
2024/01/13 11:03:13;;;;;;;52.20;23.55;;;5.00;99.90;;;;;;5114628;27;20522;-87
2024/01/13 11:05:39;;;;;;;46.65;22.67;;;3.70;99.90;;;;;;5122749;27;20116;-87
2024/01/13 11:08:06;;;;;;;50.22;22.15;;;3.70;99.90;;;;;;5125456;27;20050;-88
2024/01/13 11:10:36;;;;;;;48.55;23.08;;;3.70;99.90;;;;;;5123808;27;20035;-88
2024/01/13 11:13:24;;;;;;;50.20;21.80;;;3.80;99.90;;;;;;5106434;27;20461;-88
2024/01/13 11:16:03;;;;;;;48.22;22.15;;;4.50;99.90;;;;;;5103372;27;20493;-88
2024/01/13 11:18:37;;;;;;;43.22;20.40;;;3.80;99.90;;;;;;5106075;27;20035;-88
2024/01/13 11:21:05;;;;;;;43.15;21.10;;;3.90;99.90;;;;;;5085566;27;20042;-88
2024/01/13 11:23:45;;;;;;;37.58;18.90;;;4.40;99.90;;;;;;5104875;27;20104;-88
2024/01/13 11:26:14;;;;;;;39.70;19.48;;;3.90;99.90;;;;;;5098504;27;20063;-88
2024/01/13 11:28:51;;;;;;;38.40;18.58;;;4.00;99.90;;;;;;5101138;27;20503;-88
2024/01/13 11:31:33;;;;;;;36.25;16.85;;;4.00;99.90;;;;;;5110884;27;20631;-88
2024/01/13 11:34:00;;;;;;;33.80;16.45;;;4.40;99.90;;;;;;5129730;27;20097;-88
2024/01/13 11:36:31;;;;;;;43.40;16.63;;;4.40;99.90;;;;;;5114526;27;20060;-88
2024/01/13 11:38:58;;;;;;;33.65;15.70;;;4.10;99.90;;;;;;5103900;27;20039;-88
2024/01/13 11:41:36;;;;;;;33.13;15.23;;;4.10;99.90;;;;;;5132131;27;20038;-88
2024/01/13 11:44:01;;;;;;;31.38;14.88;;;5.20;99.90;;;;;;5102996;28;20070;-88
2024/01/13 11:46:27;;;;;;;29.85;13.93;;;4.10;99.90;;;;;;5099711;27;20055;-87
2024/01/13 11:49:01;;;;;;;33.78;15.20;;;4.10;99.90;;;;;;5115481;27;20102;-87
2024/01/13 11:52:09;;;;;;;28.73;13.93;;;4.10;99.90;;;;;;5132776;27;20063;-88
2024/01/13 11:54:37;;;;;;;32.33;14.77;;;4.10;99.90;;;;;;5084721;28;20044;-88
2024/01/13 11:57:17;;;;;;;27.48;13.82;;;4.20;99.90;;;;;;5102221;27;20039;-88
2024/01/13 11:59:43;;;;;;;26.77;13.55;;;4.20;99.90;;;;;;5078639;28;20052;-88
2024/01/13 12:02:09;;;;;;;24.35;12.90;;;5.50;99.90;;;;;;5101067;27;20031;-87
2024/01/13 12:04:36;;;;;;;35.38;14.30;;;4.20;99.90;;;;;;5103184;27;20110;-88
2024/01/13 12:07:05;;;;;;;23.52;12.45;;;5.10;99.90;;;;;;5082392;28;20084;-88
2024/01/13 12:09:31;;;;;;;28.60;12.32;;;4.20;99.90;;;;;;5102493;27;20035;-88
2024/01/13 12:12:02;;;;;;;23.88;11.23;;;4.90;99.90;;;;;;5112328;27;20038;-88
2024/01/13 12:14:29;;;;;;;26.17;11.70;;;4.20;99.90;;;;;;5109310;27;20482;-88
2024/01/13 12:16:59;;;;;;;27.60;11.35;;;4.20;99.90;;;;;;5108409;27;20027;-88
2024/01/13 12:19:36;;;;;;;23.95;10.00;;;4.20;99.90;;;;;;5105517;28;20074;-88
2024/01/13 12:22:06;;;;;;;26.50;10.63;;;4.30;99.90;;;;;;5113760;27;20032;-89
2024/01/13 12:24:34;;;;;;;19.20;9.00;;;4.30;99.90;;;;;;5081116;28;20189;-88
2024/01/13 12:26:59;;;;;;;18.35;9.35;;;4.40;99.90;;;;;;5083783;27;20035;-87
2024/01/13 12:29:29;;;;;;;23.38;9.23;;;4.40;99.90;;;;;;5097807;27;20046;-87
2024/01/13 12:32:00;;;;;;;15.75;7.97;;;4.50;99.90;;;;;;5115016;27;20069;-88
2024/01/13 12:34:26;;;;;;;16.52;7.57;;;5.30;99.90;;;;;;5088898;28;20031;-88
2024/01/13 12:36:53;;;;;;;16.55;7.47;;;4.50;99.90;;;;;;5102805;27;20118;-89
2024/01/13 12:39:19;;;;;;;19.17;7.00;;;5.40;99.90;;;;;;5113984;27;20031;-89
2024/01/13 12:41:47;;;;;;;19.75;11.15;;;5.20;99.90;;;;;;5130903;27;20039;-88
2024/01/13 12:44:13;;;;;;;10.73;6.07;;;5.60;99.90;;;;;;5132533;27;20110;-89
2024/01/13 12:46:38;;;;;;;10.68;5.63;;;5.60;99.90;;;;;;5102186;28;20045;-89
2024/01/13 12:49:17;;;;;;;10.73;5.90;;;5.00;99.90;;;;;;5105706;27;20035;-89